Time;durP1;ratioP1;P1;durP2;ratioP2;P2;SDS_P1;SDS_P2;PMS_P1;PMS_P2;Temp;Humidity;BMP_temperature;BMP_pressure;BME280_temperature;BME280_humidity;BME280_pressure;Samples;Min_cycle;Max_cycle;Signal;HPM_P1;HPM_P2
2022/01/23 00:00:43;;;;;;;6.50;2.53;;;;;;;-4.63;100.00;94839.47;5070682;28;20183;-65
2022/01/23 00:03:16;;;;;;;6.27;2.80;;;;;;;-4.55;100.00;94837.59;5072270;28;20234;-62
2022/01/23 00:05:44;;;;;;;6.37;2.70;;;;;;;-4.52;100.00;94868.09;5070543;28;20551;-68
2022/01/23 00:08:12;;;;;;;4.30;2.47;;;;;;;-4.50;100.00;94866.41;5072499;28;20594;-68
2022/01/23 00:10:38;;;;;;;4.07;2.87;;;;;;;-4.47;100.00;94866.34;5070755;28;20679;-66
2022/01/23 00:13:11;;;;;;;3.53;2.80;;;;;;;-4.41;100.00;94863.72;5071986;28;20240;-65
2022/01/23 00:18:28;;;;;;;3.20;2.50;;;;;;;-4.37;100.00;94871.88;5071746;28;20297;-66
2022/01/23 00:31:32;;;;;;;4.67;2.47;;;;;;;-4.39;100.00;94861.19;5072080;28;20200;-62
2022/01/23 00:33:59;;;;;;;2.83;2.27;;;;;;;-4.27;100.00;94865.84;5070302;28;20196;-65
2022/01/23 00:36:26;;;;;;;5.33;2.47;;;;;;;-4.42;100.00;94834.78;5071707;28;20180;-65
2022/01/23 00:38:52;;;;;;;3.97;2.87;;;;;;;-4.42;100.00;94829.81;5071466;28;20206;-68
2022/01/23 00:41:18;;;;;;;5.50;2.40;;;;;;;-4.44;100.00;94830.72;5071808;28;20562;-66
2022/01/23 00:43:45;;;;;;;3.63;2.33;;;;;;;-4.39;100.00;94836.38;5070203;28;20303;-65
2022/01/23 00:51:26;;;;;;;4.10;2.13;;;;;;;-4.47;100.00;94833.28;5072006;28;20191;-66
2022/01/23 00:53:52;;;;;;;2.80;2.37;;;;;;;-4.52;100.00;94812.72;5071757;28;20327;-62
2022/01/23 00:56:18;;;;;;;5.10;2.43;;;;;;;-4.55;100.00;94813.63;5071924;28;20211;-64
2022/01/23 00:58:44;;;;;;;6.30;2.13;;;;;;;-4.47;100.00;94821.69;5071542;28;20234;-61
2022/01/23 01:01:11;;;;;;;4.37;2.47;;;;;;;-4.46;100.00;94820.84;5053855;28;20551;-61
2022/01/23 01:03:37;;;;;;;3.13;2.50;;;;;;;-4.48;100.00;94829.16;5070035;28;20219;-67
2022/01/23 01:06:03;;;;;;;4.73;2.87;;;;;;;-4.51;100.00;94819.31;5072804;28;20183;-63
2022/01/23 01:08:30;;;;;;;4.30;2.90;;;;;;;-4.48;100.00;94821.72;5073670;28;20204;-63
2022/01/23 01:11:19;;;;;;;4.00;2.40;;;;;;;-4.45;100.00;94814.22;5073335;28;20197;-63
2022/01/23 01:14:06;;;;;;;5.20;2.90;;;;;;;-4.42;100.00;94824.03;5074741;28;20206;-62
2022/01/23 01:16:54;;;;;;;6.30;2.60;;;;;;;-4.25;100.00;94831.88;5074590;28;20555;-62
2022/01/23 01:37:48;;;;;;;6.57;3.03;;;;;;;-4.54;100.00;94830.13;5074274;28;20242;-66
2022/01/23 01:40:13;;;;;;;3.90;2.87;;;;;;;-4.64;100.00;94817.97;5073962;28;20208;-64
2022/01/23 01:42:39;;;;;;;4.83;2.77;;;;;;;-4.55;100.00;94822.72;5072835;28;20362;-60
2022/01/23 01:45:05;;;;;;;4.20;2.93;;;;;;;-4.36;100.00;94829.66;5073950;28;20180;-62
2022/01/23 01:47:31;;;;;;;5.90;3.03;;;;;;;-4.25;100.00;94839.34;5072764;28;20188;-62
2022/01/23 01:49:56;;;;;;;5.23;2.90;;;;;;;-4.35;100.00;94841.25;5073051;28;20191;-61
2022/01/23 01:52:23;;;;;;;5.03;3.47;;;;;;;-4.53;100.00;94830.94;5074165;28;20556;-58
2022/01/23 01:54:58;;;;;;;5.37;3.10;;;;;;;-4.50;100.00;94845.72;5073664;28;20254;-65
2022/01/23 01:57:28;;;;;;;5.30;2.80;;;;;;;-4.61;100.00;94832.78;5074016;28;20195;-65
2022/01/23 02:00:12;;;;;;;3.93;2.53;;;;;;;-4.52;100.00;94844.97;5072170;28;20185;-60
2022/01/23 02:03:06;;;;;;;4.20;2.90;;;;;;;-4.50;100.00;94844.06;5078769;23;20273;-66
2022/01/23 02:08:26;;;;;;;3.90;2.60;;;;;;;-4.62;100.00;94846.84;5073854;28;20280;-64
2022/01/23 02:10:58;;;;;;;6.97;3.27;;;;;;;-4.62;100.00;94841.06;5073864;28;20181;-62
2022/01/23 02:13:38;;;;;;;5.27;3.10;;;;;;;-4.56;100.00;94845.88;5073672;28;20193;-64
2022/01/23 02:57:10;;;;;;;5.87;3.73;;;;;;;-4.82;100.00;94871.28;5056358;28;20193;-60
2022/01/23 02:59:38;;;;;;;4.97;2.90;;;;;;;-4.77;100.00;94868.72;5071109;28;20220;-59
2022/01/23 03:02:26;;;;;;;9.97;3.57;;;;;;;-4.86;100.00;94873.84;5072773;28;20271;-58
2022/01/23 03:04:53;;;;;;;4.73;2.73;;;;;;;-4.76;100.00;94882.72;5071075;28;20222;-65
2022/01/23 03:10:02;;;;;;;6.27;4.57;;;;;;;-4.91;100.00;94868.22;5072638;28;20647;-60
2022/01/23 03:28:49;;;;;;;5.17;3.67;;;;;;;-4.99;100.00;94878.31;5071575;28;20724;-65
2022/01/23 03:33:43;;;;;;;6.73;3.57;;;;;;;-4.91;100.00;94902.91;5072095;28;20300;-65
2022/01/23 03:36:09;;;;;;;5.07;3.57;;;;;;;-5.12;100.00;94885.16;5070578;28;20212;-62
2022/01/23 03:38:34;;;;;;;8.57;3.57;;;;;;;-5.05;100.00;94890.00;5071667;28;20212;-65
2022/01/23 03:41:00;;;;;;;4.80;2.70;;;;;;;-5.09;100.00;94894.22;5071763;28;20251;-65
2022/01/23 03:43:28;;;;;;;6.00;3.97;;;;;;;-5.06;100.00;94903.22;5071836;28;20207;-59
2022/01/23 03:51:11;;;;;;;5.57;3.30;;;;;;;-5.02;100.00;94919.66;5071970;28;20188;-59
2022/01/23 03:53:37;;;;;;;9.50;4.10;;;;;;;-4.97;100.00;94920.38;5071949;28;20266;-65
2022/01/23 03:56:04;;;;;;;4.37;3.03;;;;;;;-4.95;100.00;94918.69;5071987;28;20182;-66
2022/01/23 03:58:30;;;;;;;6.87;3.00;;;;;;;-4.95;100.00;94923.66;5070100;28;20204;-64
2022/01/23 04:00:55;;;;;;;5.80;2.87;;;;;;;-4.84;100.00;94934.13;5069948;28;20262;-61
2022/01/23 04:03:21;;;;;;;5.07;3.77;;;;;;;-4.87;100.00;94941.63;5071129;28;20207;-66
2022/01/23 04:05:47;;;;;;;5.07;3.60;;;;;;;-4.89;100.00;94936.72;5070584;28;20188;-65
2022/01/23 04:08:15;;;;;;;4.57;3.30;;;;;;;-4.89;100.00;94939.22;5071298;28;20550;-65
2022/01/23 04:10:41;;;;;;;7.27;3.27;;;;;;;-4.85;100.00;94932.50;5071479;28;20662;-66
2022/01/23 04:15:44;;;;;;;3.63;2.97;;;;;;;-4.71;100.00;94963.59;5071135;28;20197;-64
2022/01/23 04:32:06;;;;;;;6.73;3.80;;;;;;;-4.57;100.00;94980.66;5071914;28;20180;-62
2022/01/23 04:34:52;;;;;;;5.97;3.33;;;;;;;-4.60;100.00;94961.69;5069945;28;20760;-65
2022/01/23 04:45:34;;;;;;;5.70;3.50;;;;;;;-4.66;100.00;94964.28;5074205;28;20215;-58
2022/01/23 05:04:30;;;;;;;4.67;3.20;;;;;;;-4.62;100.00;94989.84;5074470;28;20219;-66
2022/01/23 05:07:04;;;;;;;5.63;3.33;;;;;;;-4.70;100.00;94982.56;5073612;28;20288;-62
2022/01/23 05:09:31;;;;;;;4.53;3.20;;;;;;;-4.51;100.00;94995.41;5074470;28;20583;-61
2022/01/23 05:12:02;;;;;;;6.67;3.10;;;;;;;-4.71;100.00;94980.94;5074509;28;20202;-60
2022/01/23 05:14:37;;;;;;;7.03;3.13;;;;;;;-4.40;100.00;95009.19;5073027;28;20207;-59
2022/01/23 05:17:05;;;;;;;6.53;3.17;;;;;;;-4.61;100.00;95008.84;5073151;28;20279;-66
2022/01/23 05:19:33;;;;;;;7.83;3.43;;;;;;;-4.60;100.00;95012.94;5074350;28;20200;-65
2022/01/23 05:24:50;;;;;;;5.10;3.43;;;;;;;-4.58;100.00;95036.03;5074332;28;20267;-58
2022/01/23 05:27:16;;;;;;;3.73;3.03;;;;;;;-4.67;100.00;95041.19;5017108;23;20230;-59
2022/01/23 05:29:41;;;;;;;5.00;3.07;;;;;;;-4.52;100.00;95036.72;5073814;23;20224;-62
2022/01/23 05:32:10;;;;;;;4.50;2.97;;;;;;;-4.60;100.00;95033.59;5074212;28;20164;-62
2022/01/23 05:34:35;;;;;;;5.27;3.13;;;;;;;-4.59;100.00;95024.50;5074393;28;20204;-66
2022/01/23 05:37:01;;;;;;;7.13;3.20;;;;;;;-4.54;100.00;95032.66;5072559;28;20246;-65
2022/01/23 05:39:31;;;;;;;5.50;3.50;;;;;;;-4.57;100.00;95018.66;5074464;28;20246;-59
2022/01/23 05:42:04;;;;;;;6.63;2.73;;;;;;;-4.62;100.00;95019.59;5072860;28;20561;-62
2022/01/23 05:44:29;;;;;;;4.57;2.63;;;;;;;-4.66;100.00;95025.47;5074241;28;20319;-64
2022/01/23 05:46:55;;;;;;;6.03;3.30;;;;;;;-4.77;100.00;95005.88;5073878;28;20202;-66
2022/01/23 05:49:21;;;;;;;5.00;3.10;;;;;;;-4.67;100.00;95013.94;5074220;28;20209;-65
2022/01/23 05:51:46;;;;;;;7.63;3.93;;;;;;;-4.67;100.00;95008.97;5073091;28;20263;-64
2022/01/23 05:54:12;;;;;;;8.13;4.03;;;;;;;-4.76;100.00;95004.19;5074152;28;20339;-67
2022/01/23 05:56:38;;;;;;;4.80;3.00;;;;;;;-4.75;100.00;95008.31;5072417;28;20188;-65
2022/01/23 05:59:03;;;;;;;7.27;2.87;;;;;;;-4.83;100.00;95008.47;5073538;28;20661;-64
2022/01/23 06:01:28;;;;;;;6.93;3.50;;;;;;;-4.81;100.00;95015.88;5072355;28;20208;-65
2022/01/23 06:03:54;;;;;;;7.13;3.07;;;;;;;-4.91;100.00;94997.06;5073328;28;20546;-65
2022/01/23 06:06:20;;;;;;;6.83;3.50;;;;;;;-4.83;100.00;95015.09;5073756;28;20173;-65
2022/01/23 06:08:45;;;;;;;5.13;3.60;;;;;;;-4.72;100.00;95016.50;5073846;28;20205;-61
2022/01/23 06:11:11;;;;;;;6.87;4.13;;;;;;;-4.79;100.00;95019.13;5073531;28;20199;-61
2022/01/23 06:13:37;;;;;;;6.50;3.63;;;;;;;-4.82;100.00;95015.03;5073762;28;20605;-62
2022/01/23 06:16:03;;;;;;;6.30;3.33;;;;;;;-4.73;100.00;95017.34;5073568;28;20180;-64
2022/01/23 06:18:28;;;;;;;7.07;3.77;;;;;;;-4.68;100.00;95032.09;5073507;28;20760;-66
2022/01/23 06:20:54;;;;;;;8.27;3.33;;;;;;;-4.65;100.00;95042.81;5073650;28;20181;-64
2022/01/23 06:23:19;;;;;;;7.67;3.40;;;;;;;-4.58;100.00;95045.94;5072976;28;20220;-64
2022/01/23 06:25:47;;;;;;;7.87;3.30;;;;;;;-4.73;100.00;95038.84;5071859;28;20214;-65
2022/01/23 06:28:37;;;;;;;5.07;3.30;;;;;;;-4.40;100.00;95060.44;5071523;28;20218;-66
2022/01/23 06:31:03;;;;;;;9.10;4.43;;;;;;;-4.42;100.00;95079.50;5073049;28;20283;-65
2022/01/23 06:33:29;;;;;;;5.90;3.47;;;;;;;-4.48;100.00;95052.34;5073242;28;20384;-66
2022/01/23 06:35:55;;;;;;;6.00;3.77;;;;;;;-4.60;100.00;95058.38;5073189;28;20195;-62
2022/01/23 06:38:20;;;;;;;6.93;4.10;;;;;;;-4.61;100.00;95063.38;5073023;28;20234;-62
2022/01/23 06:40:46;;;;;;;6.83;3.53;;;;;;;-4.56;100.00;95052.53;5073082;28;20213;-65
2022/01/23 06:43:11;;;;;;;5.70;3.13;;;;;;;-4.55;100.00;95065.75;5072999;28;20756;-63
2022/01/23 06:45:37;;;;;;;6.03;3.60;;;;;;;-4.48;100.00;95055.66;5073042;28;20177;-64
2022/01/23 06:48:03;;;;;;;6.23;3.93;;;;;;;-4.58;100.00;95051.75;5072633;28;20236;-62
2022/01/23 06:50:28;;;;;;;7.33;4.03;;;;;;;-4.54;100.00;95038.44;5072773;28;20184;-63
2022/01/23 06:52:54;;;;;;;8.23;3.90;;;;;;;-4.66;100.00;95026.28;5072554;28;20240;-65
2022/01/23 06:55:19;;;;;;;6.37;3.60;;;;;;;-4.64;100.00;95023.75;5072803;28;20177;-64
2022/01/23 06:57:45;;;;;;;5.60;3.83;;;;;;;-4.54;100.00;95021.06;5072535;28;20215;-62
2022/01/23 07:00:11;;;;;;;6.50;4.37;;;;;;;-4.48;100.00;95027.56;5071091;28;20241;-64
2022/01/23 07:02:37;;;;;;;8.40;4.20;;;;;;;-4.41;100.00;95032.38;5072425;28;20381;-61
2022/01/23 07:05:03;;;;;;;6.47;3.00;;;;;;;-4.43;100.00;95041.50;5070627;28;20188;-64
2022/01/23 07:07:28;;;;;;;9.30;4.83;;;;;;;-4.33;100.00;95042.94;5071013;28;20282;-60
2022/01/23 07:09:54;;;;;;;7.23;3.23;;;;;;;-4.41;100.00;95042.28;5071231;28;20271;-66
2022/01/23 07:12:26;;;;;;;7.40;3.73;;;;;;;-4.51;100.00;95035.06;5070945;28;20662;-65
2022/01/23 07:14:51;;;;;;;5.73;3.70;;;;;;;-4.37;100.00;95041.38;5072146;28;20195;-61
2022/01/23 07:17:17;;;;;;;4.83;3.70;;;;;;;-4.40;100.00;95040.59;5070886;28;20182;-60
2022/01/23 07:19:42;;;;;;;6.27;4.17;;;;;;;-4.27;100.00;95069.28;5072179;28;20618;-62
2022/01/23 07:22:10;;;;;;;5.80;3.93;;;;;;;-4.27;100.00;95077.53;5072184;28;20180;-64
2022/01/23 07:24:36;;;;;;;7.87;4.57;;;;;;;-4.17;100.00;95072.38;5070916;28;20591;-66
2022/01/23 07:27:12;;;;;;;8.80;4.60;;;;;;;-4.18;99.65;95083.94;5070478;28;20624;-64
2022/01/23 07:29:37;;;;;;;6.27;4.53;;;;;;;-4.07;100.00;95072.13;5072196;28;20212;-60
2022/01/23 07:32:08;;;;;;;8.10;4.03;;;;;;;-4.10;100.00;95073.88;5070475;28;20242;-61
2022/01/23 07:34:33;;;;;;;6.30;4.07;;;;;;;-4.05;100.00;95070.44;5070681;28;20694;-67
2022/01/23 07:36:59;;;;;;;8.20;4.90;;;;;;;-3.99;100.00;95065.34;5071926;28;20287;-66
2022/01/23 07:39:25;;;;;;;9.03;4.37;;;;;;;-3.95;100.00;95073.53;5072677;28;20212;-59
2022/01/23 07:41:50;;;;;;;5.77;4.27;;;;;;;-3.91;99.49;95090.81;5071878;28;20639;-64
2022/01/23 07:44:16;;;;;;;9.67;5.40;;;;;;;-3.97;99.77;95066.13;5070723;28;20244;-64
2022/01/23 07:46:42;;;;;;;9.07;4.70;;;;;;;-3.89;100.00;95051.88;5071049;28;20184;-60
2022/01/23 07:49:08;;;;;;;10.90;5.23;;;;;;;-3.74;99.19;95076.34;5070718;28;20269;-60
2022/01/23 07:51:34;;;;;;;7.07;4.67;;;;;;;-3.68;98.72;95082.84;5072282;28;20182;-64
2022/01/23 07:54:00;;;;;;;6.63;4.67;;;;;;;-3.64;98.85;95085.22;5070561;28;20212;-66
2022/01/23 07:56:26;;;;;;;9.93;4.90;;;;;;;-3.70;98.26;95092.00;5071730;28;20188;-64
2022/01/23 07:58:52;;;;;;;9.87;5.30;;;;;;;-3.85;98.96;95074.94;5072280;28;20681;-59
2022/01/23 08:01:17;;;;;;;10.53;5.50;;;;;;;-3.84;98.90;95077.41;5070449;28;20184;-62
2022/01/23 08:03:42;;;;;;;8.03;5.10;;;;;;;-3.68;98.91;95073.72;5069928;28;20320;-65
2022/01/23 08:06:11;;;;;;;8.30;4.70;;;;;;;-3.58;98.03;95090.06;5071481;28;20181;-62
2022/01/23 08:08:36;;;;;;;8.70;4.77;;;;;;;-3.53;97.99;95094.88;5076426;23;20252;-60
2022/01/23 08:11:02;;;;;;;8.27;4.83;;;;;;;-3.58;96.96;95087.56;5071426;28;20689;-62
2022/01/23 08:13:28;;;;;;;8.70;4.37;;;;;;;-3.75;96.80;95101.19;5072061;28;20211;-63
2022/01/23 08:15:53;;;;;;;7.83;4.83;;;;;;;-3.81;97.63;95083.97;5015694;23;20231;-61
2022/01/23 08:18:20;;;;;;;11.57;4.83;;;;;;;-3.78;97.24;95082.25;5011691;28;20194;-62
2022/01/23 08:20:45;;;;;;;9.00;4.30;;;;;;;-3.64;97.34;95096.81;5010476;28;20285;-62
2022/01/23 08:23:12;;;;;;;6.23;3.83;;;;;;;-3.65;96.43;95113.38;5011655;28;20295;-62
2022/01/23 08:25:39;;;;;;;7.77;4.77;;;;;;;-3.67;95.39;95142.41;5012133;28;20207;-61
2022/01/23 08:28:07;;;;;;;7.20;4.03;;;;;;;-3.70;95.01;95137.53;5071065;23;20710;-62
2022/01/23 08:30:33;;;;;;;5.37;3.10;;;;;;;-3.84;95.86;95107.22;5071655;28;20217;-61
2022/01/23 08:32:59;;;;;;;7.37;3.17;;;;;;;-3.77;94.82;95122.75;5071408;28;20399;-66
2022/01/23 08:35:26;;;;;;;6.80;3.67;;;;;;;-3.72;95.59;95116.88;5071366;28;20266;-59
2022/01/23 08:37:52;;;;;;;11.93;5.03;;;;;;;-3.51;96.25;95098.97;5069675;28;20598;-65
2022/01/23 08:40:34;;;;;;;6.70;4.97;;;;;;;-3.62;94.81;95124.91;5071280;28;20178;-59
2022/01/23 08:43:00;;;;;;;7.57;4.50;;;;;;;-3.56;95.11;95125.59;5070145;28;20211;-65
2022/01/23 08:45:25;;;;;;;9.10;5.17;;;;;;;-3.67;94.88;95112.59;5069753;28;20179;-59
2022/01/23 08:47:51;;;;;;;6.27;4.40;;;;;;;-3.64;93.80;95144.84;5071478;28;20286;-67
2022/01/23 08:50:16;;;;;;;7.93;3.97;;;;;;;-3.46;94.30;95129.50;5071293;28;20226;-60
2022/01/23 08:52:42;;;;;;;7.83;4.23;;;;;;;-3.52;92.91;95149.53;5071212;28;20552;-61
2022/01/23 08:55:08;;;;;;;9.17;4.73;;;;;;;-3.54;93.28;95126.38;5076008;23;20783;-66
2022/01/23 08:57:33;;;;;;;7.17;4.40;;;;;;;-3.56;93.00;95147.97;5070721;28;20674;-62
2022/01/23 08:59:59;;;;;;;6.93;4.53;;;;;;;-3.48;93.49;95126.25;5070882;28;20192;-65
2022/01/23 09:02:25;;;;;;;6.80;4.20;;;;;;;-3.42;92.66;95150.13;5069473;28;20181;-65
2022/01/23 09:04:50;;;;;;;7.50;4.27;;;;;;;-3.36;93.48;95125.13;5071001;28;20210;-65
2022/01/23 09:07:16;;;;;;;6.37;4.30;;;;;;;-3.17;93.14;95128.78;5071244;28;20190;-65
2022/01/23 09:09:42;;;;;;;7.00;4.43;;;;;;;-3.13;92.84;95134.53;5071231;28;20230;-64
2022/01/23 09:12:28;;;;;;;7.93;5.60;;;;;;;-3.20;92.31;95143.78;5075627;23;20245;-65
2022/01/23 09:14:53;;;;;;;9.13;4.83;;;;;;;-3.23;91.29;95146.31;5075521;23;20585;-67
2022/01/23 09:17:19;;;;;;;7.90;5.00;;;;;;;-2.93;91.74;95150.53;5070612;28;20179;-62
2022/01/23 09:19:47;;;;;;;8.23;4.17;;;;;;;-3.08;90.99;95145.16;5070776;28;20177;-63
2022/01/23 09:22:12;;;;;;;7.33;4.73;;;;;;;-3.15;91.18;95133.75;5071143;28;20203;-62
2022/01/23 09:24:38;;;;;;;4.57;3.30;;;;;;;-3.13;91.55;95139.50;5070004;28;20221;-65
2022/01/23 09:27:06;;;;;;;10.43;4.03;;;;;;;-3.13;91.57;95134.53;5072039;28;20234;-65
2022/01/23 09:29:40;;;;;;;9.07;4.90;;;;;;;-3.02;91.89;95122.63;5075706;28;20691;-65
2022/01/23 09:32:11;;;;;;;8.50;4.73;;;;;;;-3.06;90.61;95143.44;5079276;23;20797;-65
2022/01/23 09:34:38;;;;;;;10.07;5.20;;;;;;;-3.08;91.00;95126.09;5074588;28;20699;-66
2022/01/23 09:37:06;;;;;;;10.70;5.23;;;;;;;-2.87;91.80;95132.19;5074538;28;20680;-65
2022/01/23 09:39:32;;;;;;;8.13;3.70;;;;;;;-2.84;90.25;95140.38;5074076;28;20553;-66
2022/01/23 09:41:59;;;;;;;7.60;3.93;;;;;;;-3.09;90.11;95131.09;5073080;28;20701;-65
2022/01/23 09:44:26;;;;;;;8.37;4.10;;;;;;;-3.06;90.72;95119.41;5073880;28;20212;-65
2022/01/23 09:46:55;;;;;;;11.20;5.20;;;;;;;-2.88;90.65;95116.44;5072604;28;20181;-66
2022/01/23 09:49:22;;;;;;;5.33;3.37;;;;;;;-2.94;89.25;95141.47;5073805;28;20207;-65
2022/01/23 09:51:50;;;;;;;8.00;3.60;;;;;;;-3.09;89.24;95144.31;5072475;28;20254;-64
2022/01/23 09:54:16;;;;;;;9.17;4.03;;;;;;;-3.06;89.65;95128.53;5073854;28;20211;-64
2022/01/23 09:56:43;;;;;;;6.57;3.30;;;;;;;-3.18;90.10;95114.75;5072756;28;20219;-60
2022/01/23 09:59:13;;;;;;;4.50;3.13;;;;;;;-3.21;89.48;95127.22;5055925;28;20717;-60
2022/01/23 10:01:41;;;;;;;7.47;3.83;;;;;;;-3.11;90.87;95102.97;5074319;28;20242;-64
2022/01/23 10:04:08;;;;;;;10.63;3.60;;;;;;;-3.05;89.11;95126.00;5073764;28;20728;-61
2022/01/23 10:06:34;;;;;;;7.40;5.10;;;;;;;-2.99;89.37;95117.59;5072631;28;20618;-59
2022/01/23 10:09:00;;;;;;;6.83;4.50;;;;;;;-2.97;89.27;95108.41;5072259;28;20208;-60
2022/01/23 10:11:31;;;;;;;8.23;3.30;;;;;;;-3.07;88.65;95112.00;5074031;28;20661;-66
2022/01/23 10:13:56;;;;;;;6.27;3.57;;;;;;;-3.04;89.12;95122.66;5072453;28;20212;-63
2022/01/23 10:16:22;;;;;;;6.40;3.53;;;;;;;-3.08;87.99;95125.25;5073729;28;20185;-65
2022/01/23 10:18:48;;;;;;;6.63;3.73;;;;;;;-3.04;88.19;95116.88;5073701;28;20205;-62
2022/01/23 10:21:14;;;;;;;6.93;3.60;;;;;;;-3.00;88.25;95118.44;5073825;28;20610;-63
2022/01/23 10:23:40;;;;;;;6.30;3.43;;;;;;;-3.03;87.97;95123.50;5055434;28;20220;-63
2022/01/23 10:26:06;;;;;;;6.87;3.20;;;;;;;-3.23;88.05;95111.53;5073691;28;20222;-61
2022/01/23 10:28:34;;;;;;;4.80;2.80;;;;;;;-3.16;88.56;95085.69;5073495;28;20623;-59
2022/01/23 10:31:05;;;;;;;5.37;3.37;;;;;;;-3.06;88.37;95099.50;5073719;28;20196;-60
2022/01/23 10:33:38;;;;;;;5.50;3.90;;;;;;;-3.00;87.98;95108.47;5073562;28;20684;-60
2022/01/23 10:36:10;;;;;;;6.10;3.30;;;;;;;-2.94;88.33;95099.19;5071966;28;20353;-61
2022/01/23 10:38:49;;;;;;;3.87;2.70;;;;;;;-3.04;87.61;95104.44;5071570;28;20287;-62
2022/01/23 10:49:52;;;;;;;5.23;3.23;;;;;;;-3.06;87.34;95088.75;5073074;28;20666;-64
2022/01/23 10:52:38;;;;;;;6.27;3.97;;;;;;;-3.00;87.22;95098.53;5071398;28;20175;-66
2022/01/23 10:55:27;;;;;;;4.10;3.17;;;;;;;-3.01;86.55;95102.69;5072504;28;20243;-66
2022/01/23 10:58:06;;;;;;;4.10;3.13;;;;;;;-3.06;87.55;95087.09;5072985;28;20200;-60
2022/01/23 11:00:31;;;;;;;4.87;2.70;;;;;;;-3.13;86.77;95087.28;5071245;28;20671;-61
2022/01/23 11:02:59;;;;;;;10.07;4.03;;;;;;;-3.00;87.16;95081.13;5072428;28;20222;-62
2022/01/23 11:05:32;;;;;;;7.07;3.97;;;;;;;-2.83;86.46;95092.25;5072789;28;20185;-59
2022/01/23 11:07:57;;;;;;;5.87;3.23;;;;;;;-2.88;86.24;95088.28;5071445;28;20204;-59
2022/01/23 11:10:23;;;;;;;9.07;2.87;;;;;;;-2.69;85.95;95101.88;5072522;28;20190;-59
2022/01/23 11:18:04;;;;;;;3.97;3.10;;;;;;;-2.77;84.18;95113.69;5072597;28;20290;-59
2022/01/23 11:20:49;;;;;;;6.87;3.27;;;;;;;-2.74;84.44;95101.16;5071043;28;20247;-60
2022/01/23 11:23:27;;;;;;;7.97;4.13;;;;;;;-2.68;84.54;95096.03;5071205;28;20299;-60
2022/01/23 11:25:55;;;;;;;7.80;3.57;;;;;;;-2.78;83.66;95104.59;5070583;28;20191;-64
2022/01/23 11:28:38;;;;;;;7.60;3.17;;;;;;;-2.87;84.08;95087.44;5070431;28;20202;-65
2022/01/23 11:31:07;;;;;;;5.93;3.30;;;;;;;-2.89;83.69;95096.59;5072372;28;20195;-66
2022/01/23 11:33:32;;;;;;;5.23;3.03;;;;;;;-2.91;84.46;95061.81;5071500;28;20192;-66
2022/01/23 11:35:58;;;;;;;5.33;3.37;;;;;;;-2.95;84.20;95060.25;5070784;28;20605;-62
2022/01/23 11:38:25;;;;;;;10.07;3.77;;;;;;;-2.82;85.33;95033.41;5071565;28;20659;-62
2022/01/23 11:54:51;;;;;;;5.27;3.13;;;;;;;-3.02;84.91;95035.59;5045851;28;20575;-66
2022/01/23 11:57:39;;;;;;;3.17;2.57;;;;;;;-2.97;85.00;95029.66;5051722;28;20181;-66
2022/01/23 12:00:24;;;;;;;8.03;3.17;;;;;;;-2.97;84.66;95029.66;5052217;28;20189;-61
2022/01/23 12:03:15;;;;;;;5.37;2.80;;;;;;;-2.89;85.86;95000.41;5051516;28;20199;-63
2022/01/23 12:05:44;;;;;;;5.67;2.57;;;;;;;-2.90;85.73;95007.94;5033618;28;20193;-63
2022/01/23 12:08:28;;;;;;;6.60;2.93;;;;;;;-3.02;85.31;95001.63;5051270;28;20203;-66
2022/01/23 12:11:17;;;;;;;5.03;3.00;;;;;;;-2.91;86.12;94974.78;5051647;28;20662;-63
2022/01/23 12:16:26;;;;;;;5.83;2.50;;;;;;;-3.12;86.41;94982.84;5051662;28;20206;-66
2022/01/23 12:19:12;;;;;;;5.33;2.73;;;;;;;-3.16;86.98;94963.09;5051552;28;20667;-61
2022/01/23 12:21:37;;;;;;;3.90;2.60;;;;;;;-3.06;87.52;94964.47;5049816;28;20193;-63
2022/01/23 12:24:06;;;;;;;4.53;3.23;;;;;;;-3.02;87.25;94970.97;5050904;28;20218;-63
2022/01/23 12:26:32;;;;;;;6.27;2.60;;;;;;;-3.04;86.46;94980.16;5051606;28;20207;-63
2022/01/23 12:29:17;;;;;;;5.30;2.37;;;;;;;-3.10;86.36;94987.75;5051336;28;20204;-60
2022/01/23 12:31:43;;;;;;;3.43;2.73;;;;;;;-3.10;86.94;94972.84;5051924;28;20201;-61
2022/01/23 12:34:09;;;;;;;3.53;2.77;;;;;;;-3.12;87.55;94958.00;5052285;28;20229;-63
2022/01/23 12:36:37;;;;;;;5.90;2.93;;;;;;;-3.10;88.36;94958.75;5052014;28;20678;-62
2022/01/23 12:39:09;;;;;;;5.30;3.30;;;;;;;-3.14;88.10;94951.44;5051845;28;20764;-66
2022/01/23 12:41:37;;;;;;;5.93;3.20;;;;;;;-3.19;88.47;94944.09;5051165;28;20189;-67
2022/01/23 12:44:29;;;;;;;3.13;2.53;;;;;;;-3.31;88.29;94933.69;5051376;28;20302;-66
2022/01/23 12:46:57;;;;;;;4.73;3.30;;;;;;;-3.21;89.29;94930.09;5051040;28;20672;-67
2022/01/23 12:49:29;;;;;;;6.17;2.93;;;;;;;-3.10;89.21;94928.13;5050115;28;20267;-67
2022/01/23 12:52:10;;;;;;;5.57;3.07;;;;;;;-3.19;89.07;94943.28;5075351;23;20328;-60
2022/01/23 12:54:50;;;;;;;3.63;2.23;;;;;;;-3.16;89.43;94944.03;5071207;28;20693;-64
2022/01/23 12:57:38;;;;;;;5.37;2.60;;;;;;;-3.16;90.02;94938.22;5069693;28;20272;-65
2022/01/23 13:00:23;;;;;;;3.17;2.57;;;;;;;-3.12;89.95;94929.81;5071649;28;20184;-65
2022/01/23 13:05:33;;;;;;;5.33;2.90;;;;;;;-3.10;90.61;94918.16;5075523;28;20198;-64
2022/01/23 13:08:18;;;;;;;4.93;2.80;;;;;;;-3.11;90.27;94941.41;5073385;28;20194;-65
2022/01/23 13:13:51;;;;;;;8.20;3.33;;;;;;;-3.15;91.45;94917.50;5074593;28;20203;-61
2022/01/23 13:32:10;;;;;;;4.30;3.03;;;;;;;-3.15;91.19;94939.88;5074805;28;20264;-64
2022/01/23 13:34:40;;;;;;;3.17;2.70;;;;;;;-3.17;90.85;94956.50;5074096;28;20209;-66
2022/01/23 13:37:11;;;;;;;4.70;2.70;;;;;;;-3.27;90.92;94935.25;5074099;28;20182;-59
2022/01/23 13:39:45;;;;;;;3.97;3.03;;;;;;;-3.21;91.34;94932.59;5074666;28;20596;-62
2022/01/23 13:42:32;;;;;;;2.97;2.20;;;;;;;-3.22;90.72;94935.91;5008998;23;20225;-65
2022/01/23 13:59:39;;;;;;;4.60;2.57;;;;;;;-3.27;91.59;94932.75;5014083;28;20209;-64
2022/01/23 14:02:17;;;;;;;4.53;2.73;;;;;;;-3.34;91.76;94921.34;5014155;28;20170;-63
2022/01/23 14:04:53;;;;;;;4.10;3.00;;;;;;;-3.33;91.70;94930.44;5014134;28;20591;-69
2022/01/23 14:07:27;;;;;;;4.83;2.83;;;;;;;-3.33;91.59;94926.25;5014076;28;20257;-67
2022/01/23 14:10:13;;;;;;;8.43;3.77;;;;;;;-3.31;91.66;94926.22;4980289;28;20194;-63
2022/01/23 14:12:38;;;;;;;9.30;3.87;;;;;;;-3.25;91.92;94918.63;5013580;28;20169;-61
2022/01/23 14:15:13;;;;;;;5.57;3.00;;;;;;;-3.29;92.30;94917.88;5014013;28;20185;-68
2022/01/23 14:17:40;;;;;;;7.00;3.50;;;;;;;-3.10;92.59;94923.16;5013623;28;20660;-61
2022/01/23 14:20:16;;;;;;;11.03;3.63;;;;;;;-3.09;92.30;94925.56;5013608;28;20196;-63
2022/01/23 14:22:44;;;;;;;5.90;3.00;;;;;;;-3.21;91.55;94935.84;5013683;28;20203;-63
2022/01/23 14:25:17;;;;;;;7.97;3.37;;;;;;;-3.16;91.94;94956.44;5013450;28;20220;-62
2022/01/23 14:27:46;;;;;;;6.43;3.70;;;;;;;-3.28;91.98;94941.03;5012996;28;20214;-63
2022/01/23 14:30:19;;;;;;;3.53;2.90;;;;;;;-3.41;93.17;94918.19;5013459;28;20194;-62
2022/01/23 14:32:52;;;;;;;4.73;3.30;;;;;;;-3.37;92.35;94928.88;4995806;28;20279;-66
2022/01/23 14:35:28;;;;;;;7.13;3.23;;;;;;;-3.28;92.91;94934.41;5013284;28;20214;-63
2022/01/23 14:38:06;;;;;;;6.90;2.93;;;;;;;-3.42;93.88;94924.03;5013047;28;20696;-65
2022/01/23 14:40:32;;;;;;;4.30;2.63;;;;;;;-3.59;94.74;94901.31;5013297;28;20191;-59
2022/01/23 14:43:08;;;;;;;4.47;3.13;;;;;;;-3.51;95.44;94896.94;5013293;28;20661;-66
2022/01/23 14:45:39;;;;;;;4.80;2.87;;;;;;;-3.45;94.92;94911.69;5013222;28;20623;-62
2022/01/23 14:48:06;;;;;;;4.23;2.80;;;;;;;-3.59;95.35;94897.16;5012771;28;20199;-62
2022/01/23 14:50:35;;;;;;;3.73;2.70;;;;;;;-3.54;95.70;94902.00;5012872;28;20568;-66
2022/01/23 14:53:09;;;;;;;4.87;3.20;;;;;;;-3.53;96.46;94889.53;5012689;28;20208;-67
2022/01/23 14:55:37;;;;;;;6.30;3.27;;;;;;;-3.55;96.64;94883.78;5013250;28;20359;-67
2022/01/23 14:58:03;;;;;;;6.00;3.17;;;;;;;-3.56;96.65;94884.66;4995237;28;20206;-67
2022/01/23 15:00:33;;;;;;;6.70;2.90;;;;;;;-3.65;97.43;94879.94;5013217;28;20253;-66
2022/01/23 15:03:02;;;;;;;3.73;3.00;;;;;;;-3.62;97.76;94879.88;5012616;28;20224;-67
2022/01/23 15:05:30;;;;;;;4.93;2.90;;;;;;;-3.64;98.24;94883.25;5012753;28;20601;-65
2022/01/23 15:08:05;;;;;;;5.13;3.53;;;;;;;-3.67;98.05;94888.28;5012638;28;20206;-65
2022/01/23 15:10:31;;;;;;;4.43;3.23;;;;;;;-3.65;98.12;94884.91;4995211;28;20585;-68
2022/01/23 15:12:58;;;;;;;4.37;3.10;;;;;;;-3.63;98.13;94882.38;5025768;23;20244;-69
2022/01/23 15:15:23;;;;;;;6.60;3.30;;;;;;;-3.62;98.01;94897.25;5032489;28;20193;-65
2022/01/23 15:17:49;;;;;;;7.27;3.47;;;;;;;-3.64;98.45;94889.03;5032257;28;20210;-65